Time;durP1;ratioP1;P1;durP2;ratioP2;P2;SDS_P1;SDS_P2;PMS_P1;PMS_P2;Temp;Humidity;BMP_temperature;BMP_pressure;BME280_temperature;BME280_humidity;BME280_pressure;Samples;Min_cycle;Max_cycle;Signal;HPM_P1;HPM_P2
2023/09/24 00:00:42;;;;;;;4.90;2.22;;;;;;;12.99;74.10;101390.66;4067498;29;20542;-63
2023/09/24 00:02:45;;;;;;;8.30;2.60;;;;;;;12.99;74.17;101390.66;4066242;29;20149;-62
2023/09/24 00:04:48;;;;;;;4.03;2.10;;;;;;;13.04;74.58;101393.34;4068035;29;20177;-62
2023/09/24 00:06:51;;;;;;;5.82;2.00;;;;;;;13.03;74.42;101397.69;4066999;29;20727;-63
2023/09/24 00:08:54;;;;;;;4.22;2.20;;;;;;;13.05;74.45;101389.88;4067366;29;20115;-63
2023/09/24 00:10:58;;;;;;;4.10;2.28;;;;;;;13.04;74.74;101395.94;4066588;29;20071;-62
2023/09/24 00:13:01;;;;;;;8.13;2.70;;;;;;;12.97;75.07;101401.94;4067883;29;20118;-62
2023/09/24 00:15:04;;;;;;;5.40;2.25;;;;;;;12.98;75.27;101401.97;4067252;29;20040;-62
2023/09/24 00:17:09;;;;;;;6.60;2.17;;;;;;;13.01;74.83;101403.72;4067223;29;20036;-62
2023/09/24 00:19:13;;;;;;;6.65;2.22;;;;;;;12.99;74.64;101397.59;4066156;29;20746;-63
2023/09/24 00:21:16;;;;;;;4.68;2.30;;;;;;;12.98;74.31;101401.97;4067337;29;20036;-63
2023/09/24 00:23:19;;;;;;;5.10;2.20;;;;;;;12.95;74.28;101404.47;4067252;29;20058;-63
2023/09/24 00:25:23;;;;;;;5.75;2.60;;;;;;;12.93;74.55;101407.06;4067004;29;20104;-63
2023/09/24 00:27:27;;;;;;;5.70;2.30;;;;;;;12.92;74.60;101410.53;4067099;29;20075;-63
2023/09/24 00:29:30;;;;;;;4.78;2.03;;;;;;;12.91;74.32;101408.78;4067443;29;20051;-63
2023/09/24 00:31:33;;;;;;;5.30;2.28;;;;;;;12.89;74.29;101410.50;4065674;29;20043;-63
2023/09/24 00:33:36;;;;;;;4.85;2.67;;;;;;;12.85;74.06;101418.19;4049471;29;20408;-62
2023/09/24 00:35:38;;;;;;;8.93;2.20;;;;;;;12.83;74.47;101417.31;4065433;29;20039;-63
2023/09/24 00:37:42;;;;;;;4.57;2.10;;;;;;;12.81;74.60;101416.41;4066391;29;20047;-63
2023/09/24 00:39:44;;;;;;;8.68;2.35;;;;;;;12.82;74.45;101415.53;4066750;29;20523;-62
2023/09/24 00:41:50;;;;;;;3.53;1.88;;;;;;;12.84;74.49;101417.31;4065395;29;20525;-63
2023/09/24 00:43:54;;;;;;;4.30;2.00;;;;;;;12.83;74.57;101420.78;4065480;29;20507;-62
2023/09/24 00:45:59;;;;;;;7.32;2.25;;;;;;;12.81;74.79;101425.09;4066278;29;20048;-63
2023/09/24 00:48:02;;;;;;;4.65;2.30;;;;;;;12.82;74.50;101431.19;4049427;29;20468;-63
2023/09/24 00:50:08;;;;;;;3.33;1.80;;;;;;;12.77;74.84;101428.50;4066382;29;20131;-63
2023/09/24 00:52:11;;;;;;;2.97;2.00;;;;;;;12.78;74.76;101432.88;4065931;29;20076;-63
2023/09/24 00:54:15;;;;;;;6.00;2.20;;;;;;;12.81;74.72;101429.44;4063387;29;20040;-62
2023/09/24 00:56:18;;;;;;;5.55;2.15;;;;;;;12.80;74.84;101425.94;4065189;29;20492;-63
2023/09/24 00:58:23;;;;;;;5.60;2.55;;;;;;;12.83;75.05;101420.78;4065230;29;20046;-62
2023/09/24 01:00:34;;;;;;;6.10;2.60;;;;;;;12.84;74.63;101421.69;4066537;29;20136;-62
2023/09/24 01:02:36;;;;;;;4.97;2.97;;;;;;;12.82;74.69;101421.66;4065276;29;20588;-62
2023/09/24 01:04:39;;;;;;;4.80;2.65;;;;;;;12.81;74.75;101417.28;4066705;29;20111;-62
2023/09/24 01:06:42;;;;;;;7.40;3.28;;;;;;;12.83;74.47;101414.69;4065174;29;20534;-62
2023/09/24 01:08:45;;;;;;;10.45;3.97;;;;;;;12.79;74.13;101423.31;4065620;29;20496;-63
2023/09/24 01:10:49;;;;;;;10.00;3.88;;;;;;;12.74;74.37;101426.69;4065173;29;20044;-62
2023/09/24 01:12:58;;;;;;;5.78;3.80;;;;;;;12.72;74.54;101430.13;4065498;29;20040;-62
2023/09/24 01:15:02;;;;;;;8.98;4.15;;;;;;;12.71;74.72;101433.59;4065256;29;20484;-62
2023/09/24 01:17:07;;;;;;;7.03;3.67;;;;;;;12.71;74.61;101431.84;4065475;29;20125;-62
2023/09/24 01:19:10;;;;;;;7.13;4.20;;;;;;;12.69;74.46;101430.94;4065429;29;20063;-62
2023/09/24 01:21:15;;;;;;;7.53;4.50;;;;;;;12.65;74.38;101426.50;4065357;29;20044;-62
2023/09/24 01:23:20;;;;;;;9.13;4.60;;;;;;;12.57;74.18;101428.97;4068860;29;20129;-62
2023/09/24 01:25:23;;;;;;;6.82;4.13;;;;;;;12.52;74.50;101425.34;4068042;29;20483;-62
2023/09/24 01:27:26;;;;;;;9.18;4.90;;;;;;;12.51;74.37;101423.63;4068190;29;20051;-62
2023/09/24 01:29:29;;;;;;;12.27;5.10;;;;;;;12.49;74.86;101420.06;4069920;29;20473;-63
2023/09/24 01:31:32;;;;;;;7.75;4.45;;;;;;;12.49;74.70;101422.69;4068394;29;20048;-63
2023/09/24 01:33:38;;;;;;;8.52;4.97;;;;;;;12.52;74.78;101414.91;4068067;29;20066;-63
2023/09/24 01:35:42;;;;;;;7.80;4.53;;;;;;;12.52;74.76;101417.53;4083782;29;20050;-63
2023/09/24 01:37:45;;;;;;;9.45;5.45;;;;;;;12.49;74.79;101408.78;4069325;29;20416;-63
2023/09/24 01:39:51;;;;;;;9.85;5.18;;;;;;;12.44;74.99;101423.44;4067714;29;20032;-62
2023/09/24 01:41:54;;;;;;;9.40;5.07;;;;;;;12.38;75.36;101425.06;4068207;29;20039;-63
2023/09/24 01:43:59;;;;;;;8.02;4.93;;;;;;;12.37;75.37;101431.13;4083826;29;20079;-62
2023/09/24 01:46:05;;;;;;;10.27;5.63;;;;;;;12.34;75.19;101419.75;4068549;29;20036;-62
2023/09/24 01:48:08;;;;;;;9.60;6.00;;;;;;;12.34;74.96;101430.19;4067889;29;20492;-62
2023/09/24 01:50:11;;;;;;;9.93;5.65;;;;;;;12.36;75.14;101423.25;4068184;29;20501;-63
2023/09/24 01:52:15;;;;;;;9.93;6.00;;;;;;;12.39;74.93;101428.53;4052533;29;20056;-62
2023/09/24 01:54:18;;;;;;;8.02;5.10;;;;;;;12.36;74.78;101424.13;4052642;29;20036;-62
2023/09/24 01:56:23;;;;;;;9.60;5.38;;;;;;;12.38;74.81;101424.16;4083461;29;20130;-62
2023/09/24 01:58:26;;;;;;;8.38;5.80;;;;;;;12.34;74.33;101431.06;4067555;29;20044;-63
2023/09/24 02:00:28;;;;;;;7.85;5.30;;;;;;;12.36;74.65;101433.69;4067659;29;20420;-63
2023/09/24 02:02:34;;;;;;;7.40;5.10;;;;;;;12.38;74.82;101432.00;4069272;29;20048;-62
2023/09/24 02:04:38;;;;;;;9.07;5.88;;;;;;;12.36;74.74;101429.34;4065029;29;20036;-62
2023/09/24 02:06:41;;;;;;;13.70;5.63;;;;;;;12.36;74.68;101433.69;4084060;23;20452;-59
2023/09/24 02:08:44;;;;;;;8.50;4.65;;;;;;;12.33;74.91;101428.41;4082351;29;20039;-61
2023/09/24 02:10:48;;;;;;;8.52;5.80;;;;;;;12.32;75.12;101431.84;4075811;29;20044;-62
2023/09/24 02:12:52;;;;;;;8.63;5.07;;;;;;;12.34;75.03;101435.41;4076952;29;20411;-61
2023/09/24 02:14:56;;;;;;;8.68;5.18;;;;;;;12.34;74.91;101430.19;4075681;29;20055;-62
2023/09/24 02:16:58;;;;;;;7.93;5.28;;;;;;;12.32;74.42;101437.06;4073458;29;20044;-61
2023/09/24 02:19:02;;;;;;;8.95;5.60;;;;;;;12.30;74.65;101436.16;4079063;29;20044;-61
2023/09/24 02:21:14;;;;;;;7.45;4.75;;;;;;;12.27;75.18;101441.31;4074897;29;20072;-61
2023/09/24 02:23:16;;;;;;;11.32;5.13;;;;;;;12.25;75.06;101433.47;4074430;29;20059;-61
2023/09/24 02:25:21;;;;;;;8.27;4.47;;;;;;;12.23;75.52;101436.00;4077515;29;20115;-61
2023/09/24 02:27:25;;;;;;;7.63;4.45;;;;;;;12.22;75.48;101441.19;4080034;29;20051;-61
2023/09/24 02:29:29;;;;;;;9.50;5.20;;;;;;;12.23;75.69;101442.97;4076786;29;20067;-61
2023/09/24 02:31:33;;;;;;;10.50;4.82;;;;;;;12.22;75.41;101447.31;4076461;29;20148;-61
2023/09/24 02:33:36;;;;;;;6.75;4.30;;;;;;;12.25;75.81;101449.09;4074811;29;20044;-61
2023/09/24 02:35:39;;;;;;;8.05;4.53;;;;;;;12.24;75.62;101444.72;4077790;29;20088;-61
2023/09/24 02:37:45;;;;;;;8.65;4.40;;;;;;;12.23;75.55;101448.16;4075443;29;20131;-61
2023/09/24 02:39:47;;;;;;;7.05;4.00;;;;;;;12.21;75.50;101445.53;4074046;29;20032;-61
2023/09/24 02:41:50;;;;;;;7.30;4.22;;;;;;;12.16;76.09;101452.38;4069784;29;20067;-61
2023/09/24 02:43:54;;;;;;;4.82;3.50;;;;;;;12.13;75.66;101449.66;4078827;29;20039;-61
2023/09/24 02:45:59;;;;;;;5.57;3.80;;;;;;;12.13;76.11;101449.66;4079706;29;20424;-61
2023/09/24 02:48:04;;;;;;;;;;;;;;;12.03;76.31;101452.91;4074573;29;20036;-61
2023/09/24 02:50:12;;;;;;;7.75;4.05;;;;;;;12.05;75.88;101449.50;4078439;29;19922;-61
2023/09/24 02:52:15;;;;;;;6.18;3.70;;;;;;;12.09;75.62;101455.69;4075556;29;20559;-61
2023/09/24 02:54:18;;;;;;;7.85;3.92;;;;;;;12.12;75.03;101450.53;4076007;29;20047;-61
2023/09/24 02:56:21;;;;;;;6.32;3.90;;;;;;;12.10;75.52;101459.16;4076590;29;20602;-61
2023/09/24 02:58:23;;;;;;;7.93;4.57;;;;;;;12.10;75.38;101454.81;4074209;29;20071;-61
2023/09/24 03:00:33;;;;;;;8.43;4.20;;;;;;;12.12;75.38;101460.06;4073072;29;20076;-61
2023/09/24 03:02:38;;;;;;;5.60;3.58;;;;;;;12.13;75.27;101462.72;4078301;29;20130;-61
2023/09/24 03:04:41;;;;;;;6.07;4.00;;;;;;;12.11;75.04;101461.81;4097749;28;20049;-61
2023/09/24 03:06:44;;;;;;;7.72;3.97;;;;;;;12.11;75.49;101466.16;4075850;29;20041;-61
2023/09/24 03:08:49;;;;;;;7.13;3.55;;;;;;;12.09;75.53;101466.09;4073364;29;20078;-61
2023/09/24 03:10:53;;;;;;;6.93;3.45;;;;;;;12.08;75.78;101466.94;4098793;29;20035;-61
2023/09/24 03:12:59;;;;;;;9.00;4.03;;;;;;;12.11;75.67;101469.63;4090706;29;20130;-61
2023/09/24 03:15:02;;;;;;;4.90;3.08;;;;;;;12.11;75.37;101466.16;4079222;29;20459;-61
2023/09/24 03:17:05;;;;;;;9.05;3.83;;;;;;;12.13;75.38;101473.13;4075395;29;20040;-61
2023/09/24 03:19:10;;;;;;;5.85;3.20;;;;;;;12.16;75.65;101480.16;4073790;29;20075;-61
2023/09/24 03:21:13;;;;;;;5.22;3.50;;;;;;;12.17;75.74;101479.31;4071886;29;20036;-61
2023/09/24 03:23:16;;;;;;;8.35;3.58;;;;;;;12.18;75.56;101487.19;4077535;29;20063;-61
2023/09/24 03:25:20;;;;;;;7.10;4.68;;;;;;;12.18;75.89;101483.69;4073812;29;20040;-61
2023/09/24 03:27:22;;;;;;;7.35;4.07;;;;;;;12.15;76.06;101483.59;4073635;29;20044;-61
2023/09/24 03:29:25;;;;;;;9.20;4.13;;;;;;;12.15;76.09;101484.50;4077868;29;20047;-61
2023/09/24 03:31:28;;;;;;;9.63;4.80;;;;;;;12.16;76.10;101488.88;4075953;29;20048;-61
2023/09/24 03:33:31;;;;;;;8.68;4.50;;;;;;;12.16;76.36;101488.88;4098248;29;20043;-62
2023/09/24 03:35:36;;;;;;;9.70;4.97;;;;;;;12.18;76.57;101484.56;4077850;29;20091;-61
2023/09/24 03:37:43;;;;;;;7.03;4.50;;;;;;;12.16;76.49;101488.88;4075142;29;20087;-61
2023/09/24 03:39:46;;;;;;;7.80;5.13;;;;;;;12.16;76.82;101487.97;4094962;28;20039;-61
2023/09/24 03:41:49;;;;;;;17.20;5.55;;;;;;;12.16;77.03;101488.88;4073790;29;20044;-61
2023/09/24 03:43:52;;;;;;;10.82;5.45;;;;;;;12.16;77.20;101493.19;4074281;29;20122;-61
2023/09/24 03:45:55;;;;;;;7.53;4.93;;;;;;;12.16;77.23;101488.88;4074999;29;20532;-61
2023/09/24 03:47:58;;;;;;;7.70;4.90;;;;;;;12.17;76.99;101497.56;4075957;29;20043;-61
2023/09/24 03:50:03;;;;;;;9.05;4.60;;;;;;;12.16;76.77;101499.31;4076596;29;20043;-61
2023/09/24 03:52:10;;;;;;;6.65;4.22;;;;;;;12.14;76.79;101500.09;4076102;29;20409;-61
2023/09/24 03:54:12;;;;;;;8.95;4.50;;;;;;;12.14;77.20;101500.97;4074700;29;20566;-61
2023/09/24 03:56:14;;;;;;;9.15;4.30;;;;;;;12.15;77.09;101502.75;4075329;29;20075;-61
2023/09/24 03:58:17;;;;;;;5.97;3.85;;;;;;;12.15;76.86;101507.06;4073304;29;21439;-61
2023/09/24 04:00:21;;;;;;;8.50;4.18;;;;;;;12.15;76.69;101509.66;4074824;29;20054;-61
2023/09/24 04:02:27;;;;;;;7.15;5.18;;;;;;;12.15;76.83;101515.78;4075138;29;20047;-61
2023/09/24 04:04:30;;;;;;;9.98;4.90;;;;;;;12.15;76.89;101515.78;4075870;29;20511;-61
2023/09/24 04:06:33;;;;;;;11.32;5.47;;;;;;;12.13;76.65;101521.78;4097282;28;20535;-61
2023/09/24 04:08:38;;;;;;;8.57;6.18;;;;;;;12.09;77.10;101523.44;4074673;29;20043;-61
2023/09/24 04:10:42;;;;;;;11.23;6.15;;;;;;;12.08;77.16;101526.91;4097519;28;20072;-61
2023/09/24 04:12:46;;;;;;;17.05;7.47;;;;;;;12.05;77.05;101524.22;4074031;29;20403;-61
2023/09/24 04:14:53;;;;;;;9.43;6.55;;;;;;;12.03;76.50;101531.09;4076027;29;20040;-61
2023/09/24 04:16:56;;;;;;;9.85;6.63;;;;;;;11.94;77.09;101530.88;4075485;29;20089;-61
2023/09/24 04:18:59;;;;;;;11.00;7.20;;;;;;;11.90;76.99;101534.19;4076069;29;20133;-61
2023/09/24 04:21:02;;;;;;;13.60;7.43;;;;;;;11.88;76.63;101540.28;4075693;29;20399;-61
2023/09/24 04:23:05;;;;;;;11.35;7.15;;;;;;;11.90;77.01;101531.59;4073040;29;20047;-61
2023/09/24 04:25:10;;;;;;;12.02;6.10;;;;;;;11.93;76.65;101534.28;4075440;29;20054;-61
2023/09/24 04:27:13;;;;;;;12.02;6.07;;;;;;;11.90;76.89;101536.81;4074639;29;20036;-61
2023/09/24 04:29:16;;;;;;;12.35;6.05;;;;;;;11.91;76.83;101546.41;4074343;29;20036;-61
2023/09/24 04:31:19;;;;;;;9.13;6.55;;;;;;;11.93;76.47;101545.63;4072983;29;20119;-61
2023/09/24 04:33:22;;;;;;;8.38;6.13;;;;;;;11.87;75.88;101554.13;4074131;29;20066;-61
2023/09/24 04:35:27;;;;;;;10.32;6.40;;;;;;;11.82;76.26;101560.06;4075638;29;20042;-61
2023/09/24 04:37:32;;;;;;;10.10;6.10;;;;;;;11.79;75.93;101560.84;4074222;29;20048;-61
2023/09/24 04:39:35;;;;;;;8.63;6.18;;;;;;;11.81;76.11;101563.50;4077352;29;20123;-61
2023/09/24 04:41:40;;;;;;;12.32;7.95;;;;;;;11.80;76.53;101562.63;4071410;29;20043;-61
2023/09/24 04:43:43;;;;;;;;;;;;;;;11.71;76.44;101562.38;4075188;29;20439;-61
2023/09/24 04:45:46;;;;;;;12.55;8.07;;;;;;;11.75;76.68;101566.81;4073937;29;20025;-61
2023/09/24 04:47:49;;;;;;;11.55;6.38;;;;;;;11.80;76.48;101572.19;4075611;29;20040;-61
2023/09/24 04:49:53;;;;;;;12.27;6.95;;;;;;;11.81;76.58;101567.00;4072425;29;20040;-61
2023/09/24 04:51:55;;;;;;;11.45;6.78;;;;;;;11.84;76.84;101572.28;4075362;29;20043;-61
2023/09/24 04:54:00;;;;;;;8.95;5.57;;;;;;;11.88;76.92;101566.31;4076058;29;20040;-61
2023/09/24 04:56:07;;;;;;;10.15;6.55;;;;;;;11.92;76.55;101576.84;4074139;29;20036;-61
2023/09/24 04:58:11;;;;;;;12.13;6.90;;;;;;;11.93;77.10;101574.31;4097042;29;20070;-61
2023/09/24 05:00:16;;;;;;;9.77;6.38;;;;;;;11.97;77.30;101585.66;4073881;29;20155;-61
2023/09/24 05:02:20;;;;;;;12.38;6.47;;;;;;;12.02;76.85;101597.13;4074628;29;20036;-61
2023/09/24 05:04:23;;;;;;;9.50;5.45;;;;;;;11.99;77.05;101589.22;4074952;29;20504;-61
2023/09/24 05:06:27;;;;;;;10.77;5.90;;;;;;;12.00;77.66;101598.78;4075107;29;20067;-61
2023/09/24 05:08:30;;;;;;;8.00;5.05;;;;;;;12.01;77.44;101600.56;4075588;29;20107;-61
2023/09/24 05:10:34;;;;;;;13.20;4.55;;;;;;;12.00;78.15;101612.72;4073890;29;20036;-61
2023/09/24 05:12:36;;;;;;;100.25;7.38;;;;;;;12.00;78.24;101607.50;4072878;29;20120;-61
2023/09/24 05:14:40;;;;;;;17.35;4.60;;;;;;;11.94;78.41;101614.25;4074305;29;20104;-61
2023/09/24 05:16:43;;;;;;;16.52;4.70;;;;;;;11.88;78.51;101608.03;4073052;29;20562;-61
2023/09/24 05:18:46;;;;;;;20.38;4.65;;;;;;;11.89;78.69;101611.50;4074881;29;20036;-61
2023/09/24 05:20:49;;;;;;;4.28;3.28;;;;;;;11.87;78.73;101606.25;4074804;29;20047;-61
2023/09/24 05:22:52;;;;;;;40.50;5.45;;;;;;;11.87;78.71;101608.84;4074030;29;20047;-61
2023/09/24 05:24:56;;;;;;;9.00;3.50;;;;;;;11.84;78.83;101618.28;4072872;29;20139;-61
2023/09/24 05:26:59;;;;;;;13.98;4.65;;;;;;;11.78;79.50;101616.38;4074962;29;20047;-61
2023/09/24 05:29:01;;;;;;;12.40;5.10;;;;;;;11.83;79.41;101621.75;4072855;29;20492;-61
2023/09/24 05:31:05;;;;;;;12.27;4.20;;;;;;;11.88;79.67;101633.19;4074399;29;20036;-61
2023/09/24 05:33:08;;;;;;;4.60;3.95;;;;;;;11.88;79.37;101634.06;4071232;29;20040;-61
2023/09/24 05:35:11;;;;;;;96.60;6.88;;;;;;;11.95;79.19;101634.28;4076892;29;20102;-61
2023/09/24 05:37:14;;;;;;;15.13;4.13;;;;;;;11.87;78.86;101637.50;4073419;29;20123;-61
2023/09/24 05:39:17;;;;;;;14.55;4.60;;;;;;;11.90;78.79;101648.84;4073390;29;20403;-61
2023/09/24 05:41:20;;;;;;;10.02;4.07;;;;;;;11.87;79.32;101647.03;4073799;29;20040;-61
2023/09/24 05:43:23;;;;;;;9.88;4.38;;;;;;;11.87;79.00;101645.34;4072569;29;20090;-61
2023/09/24 05:45:26;;;;;;;52.53;6.75;;;;;;;11.94;79.20;101642.91;4073626;29;20054;-61
2023/09/24 05:47:30;;;;;;;66.55;7.85;;;;;;;11.93;78.57;101649.88;4074690;29;20044;-61
2023/09/24 05:49:33;;;;;;;45.95;6.35;;;;;;;11.83;79.00;101651.28;4072406;29;20488;-61
2023/09/24 05:51:36;;;;;;;159.50;9.93;;;;;;;11.83;79.09;101651.28;4074085;29;20428;-61
2023/09/24 05:53:39;;;;;;;14.10;6.45;;;;;;;11.81;78.89;101658.19;4073005;29;20044;-61
2023/09/24 05:55:50;;;;;;;11.23;6.28;;;;;;;11.90;78.84;101657.56;4073260;29;20427;-61
2023/09/24 05:57:58;;;;;;;33.65;6.47;;;;;;;11.90;78.29;101661.88;4073728;29;20384;-61
2023/09/24 06:00:03;;;;;;;10.25;5.70;;;;;;;11.87;78.82;101652.25;4072640;29;20119;-61
2023/09/24 06:02:13;;;;;;;16.13;5.68;;;;;;;11.87;78.81;101658.34;4096085;29;20094;-61
2023/09/24 06:04:17;;;;;;;15.75;6.43;;;;;;;11.91;79.17;101663.66;4072889;29;20050;-61
2023/09/24 06:06:21;;;;;;;47.60;6.38;;;;;;;12.04;78.44;101666.66;4075130;29;20411;-61
2023/09/24 06:08:24;;;;;;;21.98;6.82;;;;;;;12.01;78.40;101673.53;4096853;28;20043;-61
2023/09/24 06:10:26;;;;;;;7.05;5.13;;;;;;;11.94;78.67;101675.06;4076660;29;20035;-61
2023/09/24 06:12:30;;;;;;;7.45;5.28;;;;;;;11.91;79.59;101674.94;4077327;29;20050;-61
2023/09/24 06:14:33;;;;;;;21.77;5.68;;;;;;;11.91;79.09;101682.75;4078792;29;20043;-61
2023/09/24 06:16:36;;;;;;;16.67;6.40;;;;;;;11.99;78.92;101680.44;4074176;29;20064;-61
2023/09/24 06:18:39;;;;;;;8.77;5.32;;;;;;;11.92;78.88;101681.06;4077472;29;20046;-61
2023/09/24 06:20:44;;;;;;;7.63;5.50;;;;;;;11.92;79.23;101681.06;4077439;29;20404;-61
2023/09/24 06:22:52;;;;;;;10.18;5.53;;;;;;;11.92;79.59;101681.06;4076074;29;21468;-61
2023/09/24 06:24:55;;;;;;;7.80;5.47;;;;;;;11.92;78.89;101686.28;4075002;29;20095;-61
2023/09/24 06:26:57;;;;;;;6.07;4.75;;;;;;;11.87;79.56;101681.81;4072821;29;20048;-61
2023/09/24 06:29:01;;;;;;;7.25;5.15;;;;;;;11.78;79.03;101691.94;4080251;29;20036;-61
2023/09/24 06:31:14;;;;;;;16.60;5.60;;;;;;;11.77;79.33;101681.47;4075505;29;20050;-61
2023/09/24 06:33:17;;;;;;;24.30;6.50;;;;;;;11.68;79.72;101687.31;4077063;29;20534;-61
2023/09/24 06:35:20;;;;;;;8.27;5.82;;;;;;;11.67;79.40;101688.16;4074813;29;20032;-61
2023/09/24 06:37:24;;;;;;;53.30;6.35;;;;;;;11.69;79.59;101689.97;4076173;29;20047;-61
2023/09/24 06:39:29;;;;;;;7.15;4.53;;;;;;;11.70;79.61;101691.72;4077441;29;20047;-61
2023/09/24 06:41:32;;;;;;;9.57;4.55;;;;;;;11.77;79.86;101692.81;4077684;29;20048;-61
2023/09/24 06:43:35;;;;;;;15.23;6.05;;;;;;;11.90;79.49;101693.16;4072994;29;20040;-61
2023/09/24 06:45:38;;;;;;;9.60;4.85;;;;;;;11.94;79.40;101684.63;4076652;29;20036;-61
2023/09/24 06:47:41;;;;;;;8.82;4.90;;;;;;;11.96;79.73;101683.84;4098553;29;20090;-61
2023/09/24 06:49:44;;;;;;;8.38;4.53;;;;;;;11.99;79.82;101693.47;4077380;29;20132;-61
2023/09/24 06:51:47;;;;;;;7.72;5.65;;;;;;;12.02;80.18;101698.75;4098861;28;20490;-61
2023/09/24 06:53:52;;;;;;;12.50;4.95;;;;;;;12.25;78.85;101701.09;4075069;29;20083;-61
2023/09/24 06:55:57;;;;;;;33.60;6.07;;;;;;;12.29;78.70;101702.97;4075930;29;20040;-61
2023/09/24 06:57:59;;;;;;;;;;;;;;;12.23;78.14;101696.72;4074157;29;20398;-61
2023/09/24 07:00:03;;;;;;;9.75;5.43;;;;;;;12.30;78.51;101694.31;4078187;29;19922;-61
2023/09/24 07:02:07;;;;;;;32.75;7.85;;;;;;;12.29;78.06;101692.53;4074458;29;20407;-61
2023/09/24 07:04:10;;;;;;;17.95;6.15;;;;;;;12.13;78.84;101699.03;4078606;29;20122;-61
2023/09/24 07:06:12;;;;;;;9.80;5.93;;;;;;;12.01;79.96;101702.19;4078103;29;20048;-61
2023/09/24 07:08:15;;;;;;;10.35;5.97;;;;;;;12.02;80.03;101698.75;4075334;29;20040;-61
2023/09/24 07:10:22;;;;;;;9.68;5.53;;;;;;;12.09;80.01;101698.09;4075048;29;20064;-61
2023/09/24 07:12:25;;;;;;;6.35;5.20;;;;;;;12.18;79.82;101697.47;4076356;29;20043;-61
2023/09/24 07:14:27;;;;;;;9.13;6.00;;;;;;;12.14;80.17;101706.03;4098259;28;20487;-61
2023/09/24 07:16:30;;;;;;;8.73;5.72;;;;;;;12.24;79.93;101702.84;4077312;29;20099;-62
2023/09/24 07:18:33;;;;;;;7.20;4.80;;;;;;;12.35;79.57;101708.34;4075240;29;20043;-61
2023/09/24 07:20:36;;;;;;;11.50;6.97;;;;;;;12.50;79.49;101703.53;4072084;29;20056;-61
2023/09/24 07:22:39;;;;;;;9.10;5.63;;;;;;;12.52;78.89;101701.84;4075102;29;20042;-61
2023/09/24 07:24:42;;;;;;;9.27;5.07;;;;;;;12.56;78.92;101703.69;4075131;29;20491;-61
2023/09/24 07:26:46;;;;;;;7.82;5.03;;;;;;;12.62;78.81;101699.50;4076160;29;20032;-61
2023/09/24 07:28:49;;;;;;;9.48;6.40;;;;;;;12.66;78.88;101704.81;4075302;29;20044;-61
2023/09/24 07:30:53;;;;;;;8.40;6.13;;;;;;;12.75;78.69;101699.81;4072310;29;20068;-61
2023/09/24 07:32:56;;;;;;;9.57;6.17;;;;;;;12.82;78.52;101700.88;4098406;29;20035;-61
2023/09/24 07:34:59;;;;;;;8.50;6.30;;;;;;;12.88;78.55;101698.41;4075888;29;20299;-61
2023/09/24 07:37:05;;;;;;;8.30;5.35;;;;;;;12.97;78.49;101707.31;4074814;29;20126;-61
2023/09/24 07:39:16;;;;;;;8.00;6.07;;;;;;;12.99;78.64;101701.28;4076066;29;20051;-61
2023/09/24 07:41:20;;;;;;;8.30;5.40;;;;;;;13.04;78.57;101704.88;4073104;29;20563;-62
2023/09/24 07:43:25;;;;;;;9.25;5.50;;;;;;;13.02;78.66;101708.31;4073229;29;20126;-62
2023/09/24 07:45:27;;;;;;;8.82;5.63;;;;;;;13.08;78.65;101709.34;4071432;29;20059;-62
2023/09/24 07:47:31;;;;;;;10.10;6.30;;;;;;;13.18;78.23;101715.66;4075389;29;20135;-62
2023/09/24 07:49:34;;;;;;;7.45;5.20;;;;;;;13.26;78.26;101710.63;4077987;29;20127;-62
2023/09/24 07:51:37;;;;;;;5.97;4.50;;;;;;;13.28;77.78;101708.91;4076948;29;20054;-62
2023/09/24 07:53:39;;;;;;;8.55;5.70;;;;;;;13.25;77.64;101704.50;4075772;29;20060;-62
2023/09/24 07:55:42;;;;;;;10.95;5.45;;;;;;;13.28;78.29;101698.47;4079348;29;20584;-62
2023/09/24 07:57:44;;;;;;;8.50;5.07;;;;;;;13.38;78.02;101705.72;4073282;29;20038;-62
2023/09/24 07:59:50;;;;;;;10.82;6.00;;;;;;;13.47;77.63;101706.78;4076243;29;20095;-62
2023/09/24 08:01:55;;;;;;;8.18;5.65;;;;;;;13.53;77.30;101707.78;4076625;29;20042;-61
2023/09/24 08:03:59;;;;;;;7.60;5.25;;;;;;;13.52;77.25;101703.41;4074220;29;20458;-60
2023/09/24 08:06:03;;;;;;;7.82;4.75;;;;;;;13.59;76.73;101705.31;4072993;29;20074;-60
2023/09/24 08:08:05;;;;;;;7.10;5.15;;;;;;;13.65;76.68;101706.28;4072571;29;20051;-63
2023/09/24 08:10:08;;;;;;;9.00;4.75;;;;;;;13.75;77.21;101705.63;4076096;29;20043;-69
2023/09/24 08:12:13;;;;;;;6.07;4.13;;;;;;;13.84;76.52;101711.03;4074398;29;20064;-66
2023/09/24 08:14:16;;;;;;;8.50;5.10;;;;;;;13.90;76.44;101711.19;4074436;29;20036;-65
2023/09/24 08:16:20;;;;;;;7.78;4.55;;;;;;;13.97;76.48;101706.94;4073218;29;20082;-64
2023/09/24 08:18:24;;;;;;;6.80;4.70;;;;;;;14.04;76.21;101714.06;4075552;29;20111;-65
2023/09/24 08:20:27;;;;;;;7.47;4.90;;;;;;;14.11;75.57;101712.47;4076490;29;20067;-65
2023/09/24 08:22:30;;;;;;;7.68;4.78;;;;;;;14.21;75.13;101706.56;4072634;29;20143;-64
2023/09/24 08:24:33;;;;;;;7.35;4.55;;;;;;;14.27;75.25;101708.44;4076373;29;20047;-65
2023/09/24 08:26:36;;;;;;;8.50;4.72;;;;;;;14.30;75.27;101706.72;4074060;29;20040;-62
2023/09/24 08:28:39;;;;;;;6.78;4.57;;;;;;;14.38;75.37;101711.22;4074120;29;20048;-64
2023/09/24 08:30:42;;;;;;;7.28;5.10;;;;;;;14.51;73.38;101712.34;4073585;29;20048;-63
2023/09/24 08:32:45;;;;;;;8.57;4.95;;;;;;;14.52;73.80;101709.75;4079213;29;20063;-63
2023/09/24 08:34:48;;;;;;;9.48;4.63;;;;;;;14.51;74.15;101713.22;4077522;29;20039;-63
2023/09/24 08:36:51;;;;;;;8.50;4.72;;;;;;;14.54;73.77;101707.16;4072930;29;20047;-66
2023/09/24 08:38:54;;;;;;;6.50;4.22;;;;;;;14.61;73.34;101714.28;4075200;29;20126;-67
2023/09/24 08:40:57;;;;;;;6.72;4.15;;;;;;;14.63;74.04;101715.19;4073765;29;20084;-67
2023/09/24 08:43:00;;;;;;;6.30;3.67;;;;;;;14.68;74.08;101720.53;4072725;29;20475;-67
2023/09/24 08:45:11;;;;;;;6.10;3.55;;;;;;;14.76;74.21;101711.97;4073643;29;20071;-71
2023/09/24 08:47:15;;;;;;;8.77;3.55;;;;;;;14.88;73.55;101708.66;4076667;29;20039;-66
2023/09/24 08:49:19;;;;;;;6.85;3.33;;;;;;;14.93;72.97;101713.97;4075521;29;20039;-66
2023/09/24 08:51:22;;;;;;;;;;;;;;;14.92;72.97;101710.50;4076096;29;20071;-66
2023/09/24 08:53:28;;;;;;;6.40;3.28;;;;;;;14.98;72.14;101713.19;4074774;29;19929;-65
2023/09/24 08:55:31;;;;;;;5.78;2.65;;;;;;;15.08;71.75;101723.81;4081699;29;20040;-64
2023/09/24 08:57:34;;;;;;;6.05;2.63;;;;;;;15.21;71.13;101724.88;4083599;29;20043;-64
2023/09/24 08:59:37;;;;;;;5.55;2.53;;;;;;;15.24;69.57;101723.19;4082932;29;20091;-65
2023/09/24 09:01:40;;;;;;;6.95;3.00;;;;;;;15.33;69.74;101717.19;4081121;29;20050;-65
2023/09/24 09:03:42;;;;;;;4.38;2.47;;;;;;;15.43;69.29;101720.84;4082184;29;20055;-65
2023/09/24 09:05:48;;;;;;;5.40;2.67;;;;;;;15.52;68.91;101713.09;4082642;29;20044;-65
2023/09/24 09:07:56;;;;;;;8.10;2.70;;;;;;;15.59;68.97;101712.34;4068165;29;20044;-64
2023/09/24 09:10:02;;;;;;;5.65;3.13;;;;;;;15.65;67.70;101716.78;4077966;29;20038;-63
2023/09/24 09:12:05;;;;;;;6.75;2.80;;;;;;;15.79;66.90;101703.91;4077420;29;20050;-63
2023/09/24 09:14:09;;;;;;;4.78;2.15;;;;;;;15.81;67.35;101710.03;4081952;29;20110;-63
2023/09/24 09:16:14;;;;;;;4.75;2.35;;;;;;;15.90;67.41;101710.13;4074204;29;20044;-63
2023/09/24 09:18:23;;;;;;;7.85;2.70;;;;;;;16.03;67.34;101712.06;4077343;29;20040;-65
2023/09/24 09:20:39;;;;;;;6.55;2.75;;;;;;;16.11;66.01;101709.53;4074910;29;20040;-65
2023/09/24 09:22:47;;;;;;;5.13;2.60;;;;;;;16.09;66.24;101702.50;4083760;29;20575;-65
2023/09/24 09:25:01;;;;;;;3.42;2.03;;;;;;;16.15;65.92;101705.19;4076011;29;20036;-65
2023/09/24 09:27:04;;;;;;;7.20;2.78;;;;;;;16.26;66.06;101703.56;4074706;29;20047;-64
2023/09/24 09:29:07;;;;;;;4.60;2.10;;;;;;;16.35;65.96;101706.31;4073461;29;20048;-65
2023/09/24 09:31:11;;;;;;;5.18;2.38;;;;;;;16.47;65.68;101699.41;4074581;29;20040;-65
2023/09/24 09:33:24;;;;;;;8.68;2.80;;;;;;;16.58;65.49;101709.13;4073742;29;20083;-64
2023/09/24 09:35:32;;;;;;;5.80;2.42;;;;;;;16.67;65.51;101707.47;4074917;29;20518;-62